Terminal Aerodrome Forecast
Issued by NWS

Home | Current Version | Previous Version | Text Only | Print | Product List | Glossary On
Versions: 1 2 3 4 5 6 7 8 9 10 11 12 13 14 15 16 17 18 19
000
FTAK31 PAJN 172000 AAA
TAFAKT
TAF AMD
PAKT 172017Z 1720/1818 14008KT P6SM BKN004 OVC020
     FM172200 14008KT P6SM SCT006 OVC022
     FM180000 14008KT P6SM FEW022 BKN035
     FM180600 14007KT P6SM SCT015 BKN022 OVC035
     FM180900 14007KT P6SM BKN012 OVC020
     FM181500 14016KT 5SM -RA BR BKN012 OVC020
      AMD LTD TO CLD VIS AND WIND 1806/1815=

USA.gov is the U.S. government's official web portal to all federal, state and local government web resources and services.